sensor_id;sensor_type;location;lat;lon;timestamp;P1;durP1;ratioP1;P2;durP2;ratioP2
32613;SDS011;19031;51.400;6.770;2023-06-14T00:01:52;5.85;;;4.22;;
32613;SDS011;19031;51.400;6.770;2023-06-14T00:04:18;8.77;;;4.68;;
32613;SDS011;19031;51.400;6.770;2023-06-14T00:06:45;8.13;;;5.13;;
32613;SDS011;19031;51.400;6.770;2023-06-14T00:09:12;12.00;;;4.60;;
32613;SDS011;19031;51.400;6.770;2023-06-14T00:11:42;8.80;;;5.28;;
32613;SDS011;19031;51.400;6.770;2023-06-14T00:14:08;6.28;;;4.78;;
32613;SDS011;19031;51.400;6.770;2023-06-14T00:16:34;6.90;;;4.32;;
32613;SDS011;19031;51.400;6.770;2023-06-14T00:19:00;6.70;;;4.10;;
32613;SDS011;19031;51.400;6.770;2023-06-14T00:21:30;8.48;;;4.72;;
32613;SDS011;19031;51.400;6.770;2023-06-14T00:23:57;8.40;;;4.68;;
32613;SDS011;19031;51.400;6.770;2023-06-14T00:26:23;7.47;;;4.70;;
32613;SDS011;19031;51.400;6.770;2023-06-14T00:28:48;7.82;;;4.63;;
32613;SDS011;19031;51.400;6.770;2023-06-14T00:31:14;13.77;;;4.78;;
32613;SDS011;19031;51.400;6.770;2023-06-14T00:33:40;7.68;;;4.90;;
32613;SDS011;19031;51.400;6.770;2023-06-14T00:36:05;9.65;;;4.45;;
32613;SDS011;19031;51.400;6.770;2023-06-14T00:38:31;7.03;;;4.00;;
32613;SDS011;19031;51.400;6.770;2023-06-14T00:40:56;7.32;;;4.35;;
32613;SDS011;19031;51.400;6.770;2023-06-14T00:43:22;9.43;;;5.00;;
32613;SDS011;19031;51.400;6.770;2023-06-14T00:45:47;9.15;;;4.57;;
32613;SDS011;19031;51.400;6.770;2023-06-14T00:48:14;6.95;;;4.05;;
32613;SDS011;19031;51.400;6.770;2023-06-14T00:50:40;7.00;;;4.55;;
32613;SDS011;19031;51.400;6.770;2023-06-14T00:53:06;7.15;;;4.72;;
32613;SDS011;19031;51.400;6.770;2023-06-14T00:55:32;15.85;;;4.85;;
32613;SDS011;19031;51.400;6.770;2023-06-14T00:57:58;5.30;;;3.75;;
32613;SDS011;19031;51.400;6.770;2023-06-14T01:00:23;10.10;;;4.18;;
32613;SDS011;19031;51.400;6.770;2023-06-14T01:02:49;6.05;;;4.25;;
32613;SDS011;19031;51.400;6.770;2023-06-14T01:05:15;5.38;;;4.10;;
32613;SDS011;19031;51.400;6.770;2023-06-14T01:10:47;6.35;;;4.38;;
32613;SDS011;19031;51.400;6.770;2023-06-14T01:15:54;8.18;;;4.68;;
32613;SDS011;19031;51.400;6.770;2023-06-14T01:18:21;7.95;;;4.32;;
32613;SDS011;19031;51.400;6.770;2023-06-14T01:20:49;6.85;;;4.28;;
32613;SDS011;19031;51.400;6.770;2023-06-14T01:23:18;6.80;;;4.28;;
32613;SDS011;19031;51.400;6.770;2023-06-14T01:25:45;4.68;;;3.85;;
32613;SDS011;19031;51.400;6.770;2023-06-14T01:28:11;11.07;;;4.13;;
32613;SDS011;19031;51.400;6.770;2023-06-14T01:30:42;7.45;;;4.40;;
32613;SDS011;19031;51.400;6.770;2023-06-14T01:33:20;7.63;;;4.57;;
32613;SDS011;19031;51.400;6.770;2023-06-14T01:35:50;7.78;;;4.45;;
32613;SDS011;19031;51.400;6.770;2023-06-14T01:38:20;7.03;;;3.60;;
32613;SDS011;19031;51.400;6.770;2023-06-14T01:40:48;10.73;;;4.60;;
32613;SDS011;19031;51.400;6.770;2023-06-14T01:43:16;5.90;;;3.90;;
32613;SDS011;19031;51.400;6.770;2023-06-14T01:45:43;6.57;;;4.03;;
32613;SDS011;19031;51.400;6.770;2023-06-14T01:48:12;7.10;;;3.95;;
32613;SDS011;19031;51.400;6.770;2023-06-14T01:50:38;5.78;;;3.78;;
32613;SDS011;19031;51.400;6.770;2023-06-14T01:53:07;7.15;;;4.05;;
32613;SDS011;19031;51.400;6.770;2023-06-14T01:55:34;6.38;;;4.03;;
32613;SDS011;19031;51.400;6.770;2023-06-14T01:58:02;10.90;;;4.38;;
32613;SDS011;19031;51.400;6.770;2023-06-14T02:00:29;6.97;;;3.97;;
32613;SDS011;19031;51.400;6.770;2023-06-14T02:02:55;9.05;;;3.85;;
32613;SDS011;19031;51.400;6.770;2023-06-14T02:05:20;7.10;;;4.18;;
32613;SDS011;19031;51.400;6.770;2023-06-14T02:07:46;7.25;;;4.38;;
32613;SDS011;19031;51.400;6.770;2023-06-14T02:10:12;9.52;;;4.30;;
32613;SDS011;19031;51.400;6.770;2023-06-14T02:12:39;8.27;;;3.85;;
32613;SDS011;19031;51.400;6.770;2023-06-14T02:15:05;7.45;;;4.05;;
32613;SDS011;19031;51.400;6.770;2023-06-14T02:17:32;7.78;;;4.00;;
32613;SDS011;19031;51.400;6.770;2023-06-14T02:19:57;10.68;;;4.50;;
32613;SDS011;19031;51.400;6.770;2023-06-14T02:22:23;8.68;;;3.50;;
32613;SDS011;19031;51.400;6.770;2023-06-14T02:24:49;6.90;;;4.20;;
32613;SDS011;19031;51.400;6.770;2023-06-14T02:27:15;7.53;;;3.78;;
32613;SDS011;19031;51.400;6.770;2023-06-14T02:29:40;6.18;;;3.85;;
32613;SDS011;19031;51.400;6.770;2023-06-14T02:32:06;8.05;;;4.45;;
32613;SDS011;19031;51.400;6.770;2023-06-14T02:34:34;5.90;;;4.00;;
32613;SDS011;19031;51.400;6.770;2023-06-14T02:37:01;5.55;;;4.00;;
32613;SDS011;19031;51.400;6.770;2023-06-14T02:39:28;8.65;;;3.90;;
32613;SDS011;19031;51.400;6.770;2023-06-14T02:41:54;8.85;;;3.92;;
32613;SDS011;19031;51.400;6.770;2023-06-14T02:44:23;7.68;;;3.95;;
32613;SDS011;19031;51.400;6.770;2023-06-14T02:46:50;6.95;;;4.22;;
32613;SDS011;19031;51.400;6.770;2023-06-14T02:49:16;6.82;;;3.55;;
32613;SDS011;19031;51.400;6.770;2023-06-14T02:51:41;6.43;;;4.00;;
32613;SDS011;19031;51.400;6.770;2023-06-14T02:54:07;8.18;;;3.80;;
32613;SDS011;19031;51.400;6.770;2023-06-14T02:56:32;5.68;;;4.00;;
32613;SDS011;19031;51.400;6.770;2023-06-14T02:58:58;8.85;;;4.15;;
32613;SDS011;19031;51.400;6.770;2023-06-14T03:01:25;8.18;;;3.90;;
32613;SDS011;19031;51.400;6.770;2023-06-14T03:03:59;6.95;;;4.53;;
32613;SDS011;19031;51.400;6.770;2023-06-14T03:06:28;7.43;;;3.60;;
32613;SDS011;19031;51.400;6.770;2023-06-14T03:08:58;5.10;;;3.72;;
32613;SDS011;19031;51.400;6.770;2023-06-14T03:11:25;4.85;;;3.78;;
32613;SDS011;19031;51.400;6.770;2023-06-14T03:13:51;7.45;;;4.00;;
32613;SDS011;19031;51.400;6.770;2023-06-14T03:16:17;5.30;;;3.80;;
32613;SDS011;19031;51.400;6.770;2023-06-14T03:18:46;8.25;;;3.67;;
32613;SDS011;19031;51.400;6.770;2023-06-14T03:21:15;5.47;;;3.65;;
32613;SDS011;19031;51.400;6.770;2023-06-14T03:23:41;6.35;;;3.78;;
32613;SDS011;19031;51.400;6.770;2023-06-14T03:26:07;6.10;;;3.88;;
32613;SDS011;19031;51.400;6.770;2023-06-14T03:28:33;6.82;;;3.92;;
32613;SDS011;19031;51.400;6.770;2023-06-14T03:30:58;7.95;;;4.07;;
32613;SDS011;19031;51.400;6.770;2023-06-14T03:33:24;11.35;;;3.63;;
32613;SDS011;19031;51.400;6.770;2023-06-14T03:35:50;4.72;;;3.33;;
32613;SDS011;19031;51.400;6.770;2023-06-14T03:38:16;8.13;;;4.25;;
32613;SDS011;19031;51.400;6.770;2023-06-14T03:40:42;6.93;;;3.92;;
32613;SDS011;19031;51.400;6.770;2023-06-14T03:43:08;6.43;;;3.85;;
32613;SDS011;19031;51.400;6.770;2023-06-14T03:45:33;6.95;;;3.53;;
32613;SDS011;19031;51.400;6.770;2023-06-14T03:47:59;9.20;;;4.05;;
32613;SDS011;19031;51.400;6.770;2023-06-14T03:50:25;6.47;;;3.85;;
32613;SDS011;19031;51.400;6.770;2023-06-14T03:52:52;6.75;;;3.90;;
32613;SDS011;19031;51.400;6.770;2023-06-14T03:55:18;11.15;;;3.45;;
32613;SDS011;19031;51.400;6.770;2023-06-14T03:57:43;6.75;;;3.50;;
32613;SDS011;19031;51.400;6.770;2023-06-14T04:00:09;8.50;;;3.60;;
32613;SDS011;19031;51.400;6.770;2023-06-14T04:02:36;7.80;;;3.60;;
32613;SDS011;19031;51.400;6.770;2023-06-14T04:05:02;6.47;;;3.53;;
32613;SDS011;19031;51.400;6.770;2023-06-14T04:07:28;6.28;;;3.35;;
32613;SDS011;19031;51.400;6.770;2023-06-14T04:09:54;6.60;;;3.53;;
32613;SDS011;19031;51.400;6.770;2023-06-14T04:12:20;6.63;;;3.40;;
32613;SDS011;19031;51.400;6.770;2023-06-14T04:14:46;6.15;;;3.90;;
32613;SDS011;19031;51.400;6.770;2023-06-14T04:17:11;8.50;;;4.13;;
32613;SDS011;19031;51.400;6.770;2023-06-14T04:19:37;9.77;;;3.65;;
32613;SDS011;19031;51.400;6.770;2023-06-14T04:22:02;6.88;;;3.20;;
32613;SDS011;19031;51.400;6.770;2023-06-14T04:24:28;11.90;;;3.45;;
32613;SDS011;19031;51.400;6.770;2023-06-14T04:26:58;5.72;;;3.20;;
32613;SDS011;19031;51.400;6.770;2023-06-14T04:29:24;10.38;;;3.80;;
32613;SDS011;19031;51.400;6.770;2023-06-14T04:31:53;8.02;;;3.47;;
32613;SDS011;19031;51.400;6.770;2023-06-14T04:34:19;5.20;;;3.38;;
32613;SDS011;19031;51.400;6.770;2023-06-14T04:36:46;7.35;;;3.38;;
32613;SDS011;19031;51.400;6.770;2023-06-14T04:39:18;7.75;;;3.13;;
32613;SDS011;19031;51.400;6.770;2023-06-14T04:41:44;6.88;;;3.00;;
32613;SDS011;19031;51.400;6.770;2023-06-14T04:44:10;9.02;;;3.05;;
32613;SDS011;19031;51.400;6.770;2023-06-14T04:46:36;8.35;;;3.53;;
32613;SDS011;19031;51.400;6.770;2023-06-14T04:49:16;7.18;;;2.70;;
32613;SDS011;19031;51.400;6.770;2023-06-14T04:51:42;5.25;;;2.88;;
32613;SDS011;19031;51.400;6.770;2023-06-14T04:54:09;4.40;;;3.13;;
32613;SDS011;19031;51.400;6.770;2023-06-14T04:56:39;9.13;;;2.72;;
32613;SDS011;19031;51.400;6.770;2023-06-14T04:59:05;6.18;;;3.25;;
32613;SDS011;19031;51.400;6.770;2023-06-14T05:01:31;7.97;;;2.97;;
32613;SDS011;19031;51.400;6.770;2023-06-14T05:03:58;5.28;;;2.67;;
32613;SDS011;19031;51.400;6.770;2023-06-14T05:06:24;5.93;;;2.20;;
32613;SDS011;19031;51.400;6.770;2023-06-14T05:08:49;4.82;;;2.78;;
32613;SDS011;19031;51.400;6.770;2023-06-14T05:11:15;6.43;;;2.72;;
32613;SDS011;19031;51.400;6.770;2023-06-14T05:13:42;4.85;;;2.70;;
32613;SDS011;19031;51.400;6.770;2023-06-14T05:16:09;4.53;;;2.80;;
32613;SDS011;19031;51.400;6.770;2023-06-14T05:18:36;4.68;;;2.58;;
32613;SDS011;19031;51.400;6.770;2023-06-14T05:21:03;5.85;;;2.30;;
32613;SDS011;19031;51.400;6.770;2023-06-14T05:23:31;6.18;;;3.40;;
32613;SDS011;19031;51.400;6.770;2023-06-14T05:25:57;6.13;;;3.40;;
32613;SDS011;19031;51.400;6.770;2023-06-14T05:28:23;6.25;;;2.65;;
32613;SDS011;19031;51.400;6.770;2023-06-14T05:30:49;4.28;;;2.90;;
32613;SDS011;19031;51.400;6.770;2023-06-14T05:33:15;4.53;;;2.70;;
32613;SDS011;19031;51.400;6.770;2023-06-14T05:35:41;3.65;;;2.30;;
32613;SDS011;19031;51.400;6.770;2023-06-14T05:38:06;4.25;;;2.47;;
32613;SDS011;19031;51.400;6.770;2023-06-14T05:40:32;4.72;;;3.03;;
32613;SDS011;19031;51.400;6.770;2023-06-14T05:42:58;4.50;;;2.60;;
32613;SDS011;19031;51.400;6.770;2023-06-14T05:45:24;5.45;;;2.13;;
32613;SDS011;19031;51.400;6.770;2023-06-14T05:47:49;4.95;;;2.50;;
32613;SDS011;19031;51.400;6.770;2023-06-14T05:50:15;7.45;;;2.65;;
32613;SDS011;19031;51.400;6.770;2023-06-14T05:52:41;4.13;;;2.60;;
32613;SDS011;19031;51.400;6.770;2023-06-14T05:55:06;4.43;;;2.63;;
32613;SDS011;19031;51.400;6.770;2023-06-14T05:57:32;4.53;;;2.60;;
32613;SDS011;19031;51.400;6.770;2023-06-14T05:59:58;4.10;;;2.75;;
32613;SDS011;19031;51.400;6.770;2023-06-14T06:02:23;4.90;;;2.55;;
32613;SDS011;19031;51.400;6.770;2023-06-14T06:04:49;7.63;;;2.50;;
32613;SDS011;19031;51.400;6.770;2023-06-14T06:07:15;7.63;;;2.40;;
32613;SDS011;19031;51.400;6.770;2023-06-14T06:09:41;4.53;;;3.00;;
32613;SDS011;19031;51.400;6.770;2023-06-14T06:12:06;8.23;;;3.00;;
32613;SDS011;19031;51.400;6.770;2023-06-14T06:14:32;3.55;;;2.00;;
32613;SDS011;19031;51.400;6.770;2023-06-14T06:16:58;5.88;;;2.80;;
32613;SDS011;19031;51.400;6.770;2023-06-14T06:19:24;6.20;;;2.20;;
32613;SDS011;19031;51.400;6.770;2023-06-14T06:21:50;4.80;;;2.50;;
32613;SDS011;19031;51.400;6.770;2023-06-14T06:24:16;8.60;;;2.78;;
32613;SDS011;19031;51.400;6.770;2023-06-14T06:26:41;3.65;;;2.10;;
32613;SDS011;19031;51.400;6.770;2023-06-14T06:29:07;3.45;;;2.60;;
32613;SDS011;19031;51.400;6.770;2023-06-14T06:31:33;4.32;;;2.25;;
32613;SDS011;19031;51.400;6.770;2023-06-14T06:33:58;4.57;;;2.30;;
32613;SDS011;19031;51.400;6.770;2023-06-14T06:36:24;7.68;;;2.25;;
32613;SDS011;19031;51.400;6.770;2023-06-14T06:38:50;8.38;;;2.03;;
32613;SDS011;19031;51.400;6.770;2023-06-14T06:41:15;4.22;;;2.20;;
32613;SDS011;19031;51.400;6.770;2023-06-14T06:43:41;5.43;;;2.53;;
32613;SDS011;19031;51.400;6.770;2023-06-14T06:46:07;5.47;;;2.50;;
32613;SDS011;19031;51.400;6.770;2023-06-14T06:48:32;3.45;;;2.08;;
32613;SDS011;19031;51.400;6.770;2023-06-14T06:50:58;4.88;;;2.25;;
32613;SDS011;19031;51.400;6.770;2023-06-14T06:53:23;4.13;;;2.08;;
32613;SDS011;19031;51.400;6.770;2023-06-14T06:55:49;6.20;;;2.65;;
32613;SDS011;19031;51.400;6.770;2023-06-14T06:58:14;4.65;;;1.98;;
32613;SDS011;19031;51.400;6.770;2023-06-14T07:00:40;4.68;;;1.55;;
32613;SDS011;19031;51.400;6.770;2023-06-14T07:03:06;4.13;;;1.50;;
32613;SDS011;19031;51.400;6.770;2023-06-14T07:05:31;2.55;;;1.20;;
32613;SDS011;19031;51.400;6.770;2023-06-14T07:07:57;4.32;;;2.05;;
32613;SDS011;19031;51.400;6.770;2023-06-14T07:10:23;2.78;;;1.58;;
32613;SDS011;19031;51.400;6.770;2023-06-14T07:12:52;4.57;;;1.60;;
32613;SDS011;19031;51.400;6.770;2023-06-14T07:15:17;3.65;;;1.98;;
32613;SDS011;19031;51.400;6.770;2023-06-14T07:17:43;4.63;;;1.70;;
32613;SDS011;19031;51.400;6.770;2023-06-14T07:20:09;3.53;;;1.20;;
32613;SDS011;19031;51.400;6.770;2023-06-14T07:22:41;3.63;;;1.63;;
32613;SDS011;19031;51.400;6.770;2023-06-14T07:25:08;4.90;;;1.40;;
32613;SDS011;19031;51.400;6.770;2023-06-14T07:27:37;4.07;;;1.60;;
32613;SDS011;19031;51.400;6.770;2023-06-14T07:30:02;3.17;;;1.63;;
32613;SDS011;19031;51.400;6.770;2023-06-14T07:32:29;2.22;;;1.23;;
32613;SDS011;19031;51.400;6.770;2023-06-14T07:34:54;4.53;;;1.38;;
32613;SDS011;19031;51.400;6.770;2023-06-14T07:37:20;3.25;;;1.30;;
32613;SDS011;19031;51.400;6.770;2023-06-14T07:39:45;2.33;;;1.20;;
32613;SDS011;19031;51.400;6.770;2023-06-14T07:42:11;4.82;;;1.50;;
32613;SDS011;19031;51.400;6.770;2023-06-14T07:44:37;4.30;;;2.10;;
32613;SDS011;19031;51.400;6.770;2023-06-14T07:47:02;4.68;;;1.90;;
32613;SDS011;19031;51.400;6.770;2023-06-14T07:49:28;5.78;;;1.50;;
32613;SDS011;19031;51.400;6.770;2023-06-14T07:51:53;2.72;;;1.65;;
32613;SDS011;19031;51.400;6.770;2023-06-14T07:54:19;4.30;;;1.40;;
32613;SDS011;19031;51.400;6.770;2023-06-14T07:56:49;3.67;;;1.58;;
32613;SDS011;19031;51.400;6.770;2023-06-14T07:59:15;2.63;;;1.38;;
32613;SDS011;19031;51.400;6.770;2023-06-14T08:01:41;2.50;;;1.23;;
32613;SDS011;19031;51.400;6.770;2023-06-14T08:04:11;3.50;;;1.17;;
32613;SDS011;19031;51.400;6.770;2023-06-14T08:06:37;5.95;;;1.65;;
32613;SDS011;19031;51.400;6.770;2023-06-14T08:09:03;3.38;;;1.52;;
32613;SDS011;19031;51.400;6.770;2023-06-14T08:11:30;1.98;;;1.20;;
32613;SDS011;19031;51.400;6.770;2023-06-14T08:13:56;3.33;;;1.48;;
32613;SDS011;19031;51.400;6.770;2023-06-14T08:16:21;9.85;;;1.45;;
32613;SDS011;19031;51.400;6.770;2023-06-14T08:18:47;7.05;;;1.88;;
32613;SDS011;19031;51.400;6.770;2023-06-14T08:21:13;4.15;;;1.65;;
32613;SDS011;19031;51.400;6.770;2023-06-14T08:23:40;2.50;;;1.48;;
32613;SDS011;19031;51.400;6.770;2023-06-14T08:26:07;3.00;;;1.20;;
32613;SDS011;19031;51.400;6.770;2023-06-14T08:28:33;6.30;;;1.23;;
32613;SDS011;19031;51.400;6.770;2023-06-14T08:30:59;4.78;;;1.58;;
32613;SDS011;19031;51.400;6.770;2023-06-14T08:33:25;3.22;;;1.45;;
32613;SDS011;19031;51.400;6.770;2023-06-14T08:35:53;3.15;;;1.50;;
32613;SDS011;19031;51.400;6.770;2023-06-14T08:38:18;3.28;;;1.60;;
32613;SDS011;19031;51.400;6.770;2023-06-14T08:40:45;6.13;;;1.60;;
32613;SDS011;19031;51.400;6.770;2023-06-14T08:43:15;4.20;;;1.85;;
32613;SDS011;19031;51.400;6.770;2023-06-14T08:45:41;6.47;;;1.65;;
32613;SDS011;19031;51.400;6.770;2023-06-14T08:48:07;3.28;;;1.85;;
32613;SDS011;19031;51.400;6.770;2023-06-14T08:50:34;3.10;;;1.40;;
32613;SDS011;19031;51.400;6.770;2023-06-14T08:53:01;6.43;;;1.83;;
32613;SDS011;19031;51.400;6.770;2023-06-14T08:55:28;2.10;;;1.20;;
32613;SDS011;19031;51.400;6.770;2023-06-14T08:57:55;3.10;;;1.40;;
32613;SDS011;19031;51.400;6.770;2023-06-14T09:00:23;4.88;;;1.77;;
32613;SDS011;19031;51.400;6.770;2023-06-14T09:02:49;3.13;;;1.52;;
32613;SDS011;19031;51.400;6.770;2023-06-14T09:05:21;8.85;;;1.33;;
32613;SDS011;19031;51.400;6.770;2023-06-14T09:07:48;3.25;;;1.70;;
32613;SDS011;19031;51.400;6.770;2023-06-14T09:10:15;4.00;;;1.23;;
32613;SDS011;19031;51.400;6.770;2023-06-14T09:12:43;3.40;;;1.52;;
32613;SDS011;19031;51.400;6.770;2023-06-14T09:15:09;5.15;;;1.90;;
32613;SDS011;19031;51.400;6.770;2023-06-14T09:17:35;1.85;;;1.15;;
32613;SDS011;19031;51.400;6.770;2023-06-14T09:20:02;5.88;;;2.05;;
32613;SDS011;19031;51.400;6.770;2023-06-14T09:22:31;7.00;;;1.95;;
32613;SDS011;19031;51.400;6.770;2023-06-14T09:24:57;4.70;;;1.50;;
32613;SDS011;19031;51.400;6.770;2023-06-14T09:27:23;5.60;;;1.88;;
32613;SDS011;19031;51.400;6.770;2023-06-14T09:29:51;4.05;;;1.88;;
32613;SDS011;19031;51.400;6.770;2023-06-14T09:32:17;6.28;;;1.92;;
32613;SDS011;19031;51.400;6.770;2023-06-14T09:34:43;8.63;;;2.15;;
32613;SDS011;19031;51.400;6.770;2023-06-14T09:37:09;5.53;;;1.80;;
32613;SDS011;19031;51.400;6.770;2023-06-14T09:39:34;6.38;;;1.90;;
32613;SDS011;19031;51.400;6.770;2023-06-14T09:42:00;4.18;;;1.27;;
32613;SDS011;19031;51.400;6.770;2023-06-14T09:44:25;2.90;;;1.77;;
32613;SDS011;19031;51.400;6.770;2023-06-14T09:46:55;5.55;;;1.42;;
32613;SDS011;19031;51.400;6.770;2023-06-14T09:49:21;3.78;;;1.92;;
32613;SDS011;19031;51.400;6.770;2023-06-14T09:51:48;3.85;;;2.00;;
32613;SDS011;19031;51.400;6.770;2023-06-14T09:54:16;2.45;;;1.65;;
32613;SDS011;19031;51.400;6.770;2023-06-14T09:56:47;2.63;;;1.40;;
32613;SDS011;19031;51.400;6.770;2023-06-14T09:59:16;4.60;;;2.95;;
32613;SDS011;19031;51.400;6.770;2023-06-14T10:01:46;4.45;;;1.35;;
32613;SDS011;19031;51.400;6.770;2023-06-14T10:04:13;2.67;;;1.60;;
32613;SDS011;19031;51.400;6.770;2023-06-14T10:06:42;4.93;;;2.13;;
32613;SDS011;19031;51.400;6.770;2023-06-14T10:09:10;3.35;;;1.92;;
32613;SDS011;19031;51.400;6.770;2023-06-14T10:11:36;3.05;;;2.00;;
32613;SDS011;19031;51.400;6.770;2023-06-14T10:14:08;5.03;;;2.70;;
32613;SDS011;19031;51.400;6.770;2023-06-14T10:16:37;2.22;;;1.00;;
32613;SDS011;19031;51.400;6.770;2023-06-14T10:19:13;6.63;;;3.13;;
32613;SDS011;19031;51.400;6.770;2023-06-14T10:24:15;3.55;;;2.03;;
32613;SDS011;19031;51.400;6.770;2023-06-14T10:26:50;5.20;;;1.50;;
32613;SDS011;19031;51.400;6.770;2023-06-14T10:29:17;4.43;;;1.80;;
32613;SDS011;19031;51.400;6.770;2023-06-14T10:31:46;3.67;;;1.33;;
32613;SDS011;19031;51.400;6.770;2023-06-14T10:34:34;6.40;;;2.03;;
32613;SDS011;19031;51.400;6.770;2023-06-14T10:37:04;4.97;;;2.30;;
32613;SDS011;19031;51.400;6.770;2023-06-14T10:39:32;4.63;;;1.50;;
32613;SDS011;19031;51.400;6.770;2023-06-14T10:42:06;6.05;;;1.85;;
32613;SDS011;19031;51.400;6.770;2023-06-14T10:46:58;6.28;;;1.20;;
32613;SDS011;19031;51.400;6.770;2023-06-14T10:49:41;2.70;;;1.33;;
32613;SDS011;19031;51.400;6.770;2023-06-14T10:52:14;1.85;;;0.90;;
32613;SDS011;19031;51.400;6.770;2023-06-14T10:57:47;2.28;;;0.90;;
32613;SDS011;19031;51.400;6.770;2023-06-14T11:00:17;4.25;;;1.65;;
32613;SDS011;19031;51.400;6.770;2023-06-14T11:03:07;2.97;;;0.95;;
32613;SDS011;19031;51.400;6.770;2023-06-14T11:05:58;2.15;;;1.10;;
32613;SDS011;19031;51.400;6.770;2023-06-14T11:11:05;3.42;;;1.55;;
32613;SDS011;19031;51.400;6.770;2023-06-14T11:13:32;4.90;;;0.93;;
32613;SDS011;19031;51.400;6.770;2023-06-14T11:15:57;2.78;;;1.83;;
32613;SDS011;19031;51.400;6.770;2023-06-14T11:18:24;3.67;;;1.92;;
32613;SDS011;19031;51.400;6.770;2023-06-14T11:20:52;3.35;;;1.27;;
32613;SDS011;19031;51.400;6.770;2023-06-14T11:23:18;1.73;;;1.00;;
32613;SDS011;19031;51.400;6.770;2023-06-14T11:25:43;4.00;;;0.80;;
32613;SDS011;19031;51.400;6.770;2023-06-14T11:28:14;4.75;;;2.20;;
32613;SDS011;19031;51.400;6.770;2023-06-14T11:30:39;1.77;;;1.10;;
32613;SDS011;19031;51.400;6.770;2023-06-14T11:33:09;1.85;;;0.90;;
32613;SDS011;19031;51.400;6.770;2023-06-14T11:35:35;4.38;;;1.77;;
32613;SDS011;19031;51.400;6.770;2023-06-14T11:38:01;3.58;;;1.52;;
32613;SDS011;19031;51.400;6.770;2023-06-14T11:40:27;3.00;;;1.60;;
32613;SDS011;19031;51.400;6.770;2023-06-14T11:42:58;2.28;;;1.38;;
32613;SDS011;19031;51.400;6.770;2023-06-14T11:45:25;1.55;;;1.08;;
32613;SDS011;19031;51.400;6.770;2023-06-14T11:47:51;1.95;;;1.00;;
32613;SDS011;19031;51.400;6.770;2023-06-14T11:50:21;5.63;;;1.58;;
32613;SDS011;19031;51.400;6.770;2023-06-14T11:52:52;4.65;;;1.20;;
32613;SDS011;19031;51.400;6.770;2023-06-14T11:55:19;2.95;;;1.38;;
32613;SDS011;19031;51.400;6.770;2023-06-14T11:57:46;2.47;;;1.08;;
32613;SDS011;19031;51.400;6.770;2023-06-14T12:00:12;4.88;;;1.70;;
32613;SDS011;19031;51.400;6.770;2023-06-14T12:02:40;3.50;;;0.90;;
32613;SDS011;19031;51.400;6.770;2023-06-14T12:05:05;1.67;;;0.93;;
32613;SDS011;19031;51.400;6.770;2023-06-14T12:07:34;3.83;;;2.00;;
32613;SDS011;19031;51.400;6.770;2023-06-14T12:10:07;3.30;;;2.03;;
32613;SDS011;19031;51.400;6.770;2023-06-14T12:12:36;2.20;;;1.25;;
32613;SDS011;19031;51.400;6.770;2023-06-14T12:15:07;2.22;;;0.88;;
32613;SDS011;19031;51.400;6.770;2023-06-14T12:17:34;4.68;;;1.30;;
32613;SDS011;19031;51.400;6.770;2023-06-14T12:20:11;3.70;;;1.02;;
32613;SDS011;19031;51.400;6.770;2023-06-14T12:22:53;4.32;;;1.33;;
32613;SDS011;19031;51.400;6.770;2023-06-14T12:28:06;4.97;;;2.78;;
32613;SDS011;19031;51.400;6.770;2023-06-14T12:30:33;6.47;;;2.05;;
32613;SDS011;19031;51.400;6.770;2023-06-14T12:33:01;7.85;;;1.73;;
32613;SDS011;19031;51.400;6.770;2023-06-14T12:35:27;2.17;;;0.88;;
32613;SDS011;19031;51.400;6.770;2023-06-14T12:37:53;1.83;;;1.23;;
32613;SDS011;19031;51.400;6.770;2023-06-14T12:40:19;1.98;;;1.30;;
32613;SDS011;19031;51.400;6.770;2023-06-14T12:42:45;1.80;;;0.85;;
32613;SDS011;19031;51.400;6.770;2023-06-14T12:45:13;2.92;;;1.10;;
32613;SDS011;19031;51.400;6.770;2023-06-14T12:47:39;2.80;;;1.38;;
32613;SDS011;19031;51.400;6.770;2023-06-14T12:50:05;2.70;;;1.40;;
32613;SDS011;19031;51.400;6.770;2023-06-14T12:52:31;1.98;;;1.20;;
32613;SDS011;19031;51.400;6.770;2023-06-14T12:55:00;4.47;;;1.05;;
32613;SDS011;19031;51.400;6.770;2023-06-14T12:57:27;2.80;;;1.73;;
32613;SDS011;19031;51.400;6.770;2023-06-14T12:59:53;3.15;;;1.13;;
32613;SDS011;19031;51.400;6.770;2023-06-14T13:02:19;1.45;;;0.88;;
32613;SDS011;19031;51.400;6.770;2023-06-14T13:04:49;5.32;;;1.85;;
32613;SDS011;19031;51.400;6.770;2023-06-14T13:07:15;3.42;;;1.50;;
32613;SDS011;19031;51.400;6.770;2023-06-14T13:09:41;3.88;;;1.63;;
32613;SDS011;19031;51.400;6.770;2023-06-14T13:12:08;6.18;;;1.40;;
32613;SDS011;19031;51.400;6.770;2023-06-14T13:14:37;2.05;;;1.40;;
32613;SDS011;19031;51.400;6.770;2023-06-14T13:17:04;2.80;;;1.38;;
32613;SDS011;19031;51.400;6.770;2023-06-14T13:19:30;2.83;;;1.60;;
32613;SDS011;19031;51.400;6.770;2023-06-14T13:21:56;4.22;;;1.38;;
32613;SDS011;19031;51.400;6.770;2023-06-14T13:24:21;2.03;;;1.10;;
32613;SDS011;19031;51.400;6.770;2023-06-14T13:26:47;2.88;;;1.15;;
32613;SDS011;19031;51.400;6.770;2023-06-14T13:29:12;2.10;;;1.15;;
32613;SDS011;19031;51.400;6.770;2023-06-14T13:31:38;2.60;;;1.40;;
32613;SDS011;19031;51.400;6.770;2023-06-14T13:34:04;2.67;;;1.25;;
32613;SDS011;19031;51.400;6.770;2023-06-14T13:36:30;3.03;;;1.45;;
32613;SDS011;19031;51.400;6.770;2023-06-14T13:38:56;2.33;;;1.30;;
32613;SDS011;19031;51.400;6.770;2023-06-14T13:41:23;2.45;;;1.30;;
32613;SDS011;19031;51.400;6.770;2023-06-14T13:43:56;4.18;;;1.45;;
32613;SDS011;19031;51.400;6.770;2023-06-14T13:46:22;3.60;;;1.80;;
32613;SDS011;19031;51.400;6.770;2023-06-14T13:48:47;2.40;;;1.10;;
32613;SDS011;19031;51.400;6.770;2023-06-14T13:51:13;3.88;;;2.03;;
32613;SDS011;19031;51.400;6.770;2023-06-14T13:53:38;2.33;;;1.27;;
32613;SDS011;19031;51.400;6.770;2023-06-14T13:56:04;4.28;;;1.38;;
32613;SDS011;19031;51.400;6.770;2023-06-14T13:58:30;2.20;;;1.10;;
32613;SDS011;19031;51.400;6.770;2023-06-14T14:00:55;2.17;;;0.98;;
32613;SDS011;19031;51.400;6.770;2023-06-14T14:03:21;4.78;;;2.38;;
32613;SDS011;19031;51.400;6.770;2023-06-14T14:05:47;4.50;;;1.73;;
32613;SDS011;19031;51.400;6.770;2023-06-14T14:08:13;3.38;;;2.05;;
32613;SDS011;19031;51.400;6.770;2023-06-14T14:10:38;2.95;;;1.27;;
32613;SDS011;19031;51.400;6.770;2023-06-14T14:13:04;3.75;;;2.05;;
32613;SDS011;19031;51.400;6.770;2023-06-14T14:15:29;3.28;;;1.40;;
32613;SDS011;19031;51.400;6.770;2023-06-14T14:17:55;2.60;;;1.42;;
32613;SDS011;19031;51.400;6.770;2023-06-14T14:20:22;2.88;;;1.40;;
32613;SDS011;19031;51.400;6.770;2023-06-14T14:22:48;3.53;;;1.60;;
32613;SDS011;19031;51.400;6.770;2023-06-14T14:25:13;6.95;;;1.02;;
32613;SDS011;19031;51.400;6.770;2023-06-14T14:27:39;1.58;;;1.10;;
32613;SDS011;19031;51.400;6.770;2023-06-14T14:30:05;3.05;;;1.42;;
32613;SDS011;19031;51.400;6.770;2023-06-14T14:32:31;3.75;;;1.88;;
32613;SDS011;19031;51.400;6.770;2023-06-14T14:34:56;3.20;;;1.83;;
32613;SDS011;19031;51.400;6.770;2023-06-14T14:37:23;6.70;;;1.83;;
32613;SDS011;19031;51.400;6.770;2023-06-14T14:39:48;3.28;;;1.40;;
32613;SDS011;19031;51.400;6.770;2023-06-14T14:42:14;6.65;;;1.90;;
32613;SDS011;19031;51.400;6.770;2023-06-14T14:44:40;1.80;;;1.25;;
32613;SDS011;19031;51.400;6.770;2023-06-14T14:47:05;5.07;;;1.30;;
32613;SDS011;19031;51.400;6.770;2023-06-14T14:49:31;2.25;;;1.38;;
32613;SDS011;19031;51.400;6.770;2023-06-14T14:51:57;3.55;;;1.52;;
32613;SDS011;19031;51.400;6.770;2023-06-14T14:54:23;3.53;;;2.00;;
32613;SDS011;19031;51.400;6.770;2023-06-14T14:56:50;4.47;;;2.83;;
32613;SDS011;19031;51.400;6.770;2023-06-14T14:59:16;2.97;;;1.50;;
32613;SDS011;19031;51.400;6.770;2023-06-14T15:01:42;3.70;;;1.88;;
32613;SDS011;19031;51.400;6.770;2023-06-14T15:04:07;3.97;;;1.52;;
32613;SDS011;19031;51.400;6.770;2023-06-14T15:06:33;3.33;;;1.70;;